Time;durP1;ratioP1;P1;durP2;ratioP2;P2;SDS_P1;SDS_P2;PMS_P1;PMS_P2;Temp;Humidity;BMP_temperature;BMP_pressure;BME280_temperature;BME280_humidity;BME280_pressure;Samples;Min_cycle;Max_cycle;Signal;HPM_P1;HPM_P2
2021/09/27 00:00:34;;;;;;;28.58;17.58;;;16.50;91.10;;;;;;5053673;28;20044;-48
2021/09/27 00:03:00;;;;;;;22.27;16.75;;;16.50;91.00;;;;;;5054881;28;20025;-52
2021/09/27 00:05:27;;;;;;;23.42;17.45;;;16.50;91.20;;;;;;5054977;28;20338;-52
2021/09/27 00:07:53;;;;;;;24.73;19.50;;;16.50;91.20;;;;;;5054762;28;20021;-48
2021/09/27 00:10:34;;;;;;;25.83;17.08;;;16.50;91.10;;;;;;5053571;28;20025;-52
2021/09/27 00:13:01;;;;;;;24.02;17.55;;;16.50;91.00;;;;;;5053397;28;20055;-50
2021/09/27 00:15:32;;;;;;;24.05;17.38;;;16.40;91.00;;;;;;5054639;28;20029;-49
2021/09/27 00:17:58;;;;;;;21.08;16.35;;;16.40;91.00;;;;;;5053797;28;20079;-50
2021/09/27 00:20:24;;;;;;;21.13;16.42;;;16.30;91.10;;;;;;5053010;28;20029;-52
2021/09/27 00:22:50;;;;;;;20.27;16.23;;;16.30;91.20;;;;;;5054607;28;20025;-51
2021/09/27 00:25:21;;;;;;;21.05;15.38;;;16.30;91.30;;;;;;5054573;28;20033;-50
2021/09/27 00:27:46;;;;;;;22.92;16.63;;;16.30;91.40;;;;;;5055195;28;20032;-48
2021/09/27 00:30:13;;;;;;;23.35;16.23;;;16.20;91.50;;;;;;5054563;28;20029;-49
2021/09/27 00:32:39;;;;;;;25.67;16.55;;;16.20;91.50;;;;;;5052879;28;20543;-51
2021/09/27 00:35:07;;;;;;;22.92;16.90;;;16.10;91.70;;;;;;5054073;28;20029;-46
2021/09/27 00:37:33;;;;;;;18.88;15.77;;;16.10;91.70;;;;;;5054238;28;20028;-47
2021/09/27 00:39:58;;;;;;;20.45;16.05;;;16.10;91.80;;;;;;5054043;28;20021;-50
2021/09/27 00:42:24;;;;;;;26.42;16.33;;;16.20;91.80;;;;;;5053835;28;20029;-49
2021/09/27 00:44:50;;;;;;;20.65;14.75;;;16.10;91.70;;;;;;5053733;28;20475;-51
2021/09/27 00:47:16;;;;;;;24.00;16.65;;;16.20;91.60;;;;;;5054212;28;20039;-48
2021/09/27 00:49:42;;;;;;;21.40;14.93;;;16.20;91.40;;;;;;5053902;28;20385;-48
2021/09/27 00:52:08;;;;;;;20.50;16.38;;;16.20;91.30;;;;;;5054286;28;20118;-51
2021/09/27 00:54:36;;;;;;;25.02;16.10;;;16.20;91.30;;;;;;5053843;28;20049;-49
2021/09/27 00:57:16;;;;;;;21.38;15.93;;;16.20;91.00;;;;;;5054033;28;20112;-48
2021/09/27 00:59:46;;;;;;;24.52;16.13;;;16.10;91.10;;;;;;5053506;28;20083;-48
2021/09/27 01:02:12;;;;;;;22.75;16.95;;;16.10;91.10;;;;;;5053414;28;20107;-47
2021/09/27 01:04:38;;;;;;;22.48;16.38;;;16.30;90.60;;;;;;5053438;28;20060;-45
2021/09/27 01:07:18;;;;;;;22.38;15.60;;;16.10;90.80;;;;;;5053283;28;20496;-47
2021/09/27 01:10:02;;;;;;;;;;;16.10;91.00;;;;;;5053499;28;20029;-47
2021/09/27 01:13:08;;;;;;;26.38;16.20;;;16.20;90.40;;;;;;5051658;28;19911;-47
2021/09/27 01:15:53;;;;;;;20.48;16.80;;;16.40;89.90;;;;;;5035602;28;20160;-50
2021/09/27 01:18:49;;;;;;;28.10;17.45;;;16.20;89.90;;;;;;5053064;28;20017;-49
2021/09/27 01:21:26;;;;;;;24.75;16.70;;;16.10;90.30;;;;;;5053024;28;20032;-47
2021/09/27 01:24:04;;;;;;;21.33;16.50;;;16.00;90.70;;;;;;5053853;28;20404;-49
2021/09/27 01:27:01;;;;;;;22.77;17.00;;;16.00;90.80;;;;;;5053090;28;20039;-46
2021/09/27 01:29:50;;;;;;;19.63;15.18;;;16.00;90.90;;;;;;5052643;28;20372;-49
2021/09/27 01:32:33;;;;;;;23.95;15.73;;;15.90;90.90;;;;;;5052690;28;20036;-50
2021/09/27 01:35:08;;;;;;;20.42;15.70;;;15.90;90.90;;;;;;5052751;28;20032;-48
2021/09/27 01:37:43;;;;;;;21.42;15.55;;;15.80;91.10;;;;;;5053096;28;20049;-50
2021/09/27 01:40:40;;;;;;;21.20;15.05;;;15.80;91.20;;;;;;5053109;28;20032;-47
2021/09/27 01:43:31;;;;;;;23.58;17.90;;;15.80;91.30;;;;;;5051782;28;20056;-46
2021/09/27 01:46:15;;;;;;;;;;;15.70;91.40;;;;;;5051784;28;20036;-47
2021/09/27 01:48:50;;;;;;;22.63;16.25;;;15.70;91.50;;;;;;5052918;28;19942;-47
2021/09/27 01:51:24;;;;;;;20.33;14.10;;;15.70;91.60;;;;;;5052698;28;20032;-46
2021/09/27 01:54:00;;;;;;;21.42;14.93;;;15.70;91.60;;;;;;5051423;28;20433;-50
2021/09/27 01:56:39;;;;;;;21.20;15.55;;;15.80;91.60;;;;;;5051400;28;20076;-48
2021/09/27 01:59:10;;;;;;;21.83;14.63;;;15.80;91.50;;;;;;5052818;28;20108;-49
2021/09/27 02:01:53;;;;;;;18.15;14.27;;;15.80;91.40;;;;;;5053279;28;20393;-49
2021/09/27 02:04:30;;;;;;;22.25;15.38;;;15.80;91.20;;;;;;5052843;28;20500;-51
2021/09/27 02:06:57;;;;;;;20.95;15.30;;;15.80;91.20;;;;;;5052736;28;20036;-49
2021/09/27 02:09:32;;;;;;;23.42;15.27;;;15.80;91.20;;;;;;5051172;28;20163;-46
2021/09/27 02:12:04;;;;;;;21.48;15.02;;;15.80;91.10;;;;;;5052995;28;20025;-47
2021/09/27 02:14:40;;;;;;;19.35;13.45;;;15.80;91.10;;;;;;5052866;28;20415;-48
2021/09/27 02:17:21;;;;;;;17.42;12.98;;;15.80;91.00;;;;;;5052485;28;20385;-51
2021/09/27 02:19:58;;;;;;;17.88;12.50;;;15.80;90.90;;;;;;5052867;28;20032;-49
2021/09/27 02:22:27;;;;;;;18.80;14.52;;;15.80;90.50;;;;;;5052704;28;20043;-49
2021/09/27 02:25:05;;;;;;;17.83;13.30;;;15.80;90.60;;;;;;5052384;28;20021;-47
2021/09/27 02:27:32;;;;;;;15.77;12.75;;;15.80;90.60;;;;;;5052533;28;20032;-49
2021/09/27 02:29:58;;;;;;;22.15;14.82;;;15.70;90.80;;;;;;5052190;28;20033;-49
2021/09/27 02:33:02;;;;;;;20.00;13.65;;;15.70;90.80;;;;;;5052360;28;20386;-49
2021/09/27 02:35:35;;;;;;;18.27;13.23;;;15.70;90.90;;;;;;5044904;28;20091;-51
2021/09/27 02:38:13;;;;;;;17.75;14.13;;;15.60;91.00;;;;;;5054572;28;20029;-49
2021/09/27 02:40:46;;;;;;;19.30;14.63;;;15.60;91.00;;;;;;5056084;28;20412;-47
2021/09/27 02:43:13;;;;;;;21.27;14.00;;;15.60;91.00;;;;;;5056124;28;20100;-50
2021/09/27 02:45:39;;;;;;;19.15;15.05;;;15.50;91.10;;;;;;5056259;28;20021;-49
2021/09/27 02:48:13;;;;;;;21.48;14.30;;;15.40;91.20;;;;;;5056561;28;20100;-48
2021/09/27 02:50:42;;;;;;;18.52;13.23;;;15.40;91.30;;;;;;5056590;28;20029;-49
2021/09/27 02:53:10;;;;;;;20.67;14.48;;;15.40;91.50;;;;;;5055846;28;20036;-48
2021/09/27 02:56:21;;;;;;;17.98;12.50;;;15.60;91.10;;;;;;5055723;28;20063;-52
2021/09/27 02:59:20;;;;;;;24.65;13.90;;;15.70;90.90;;;;;;5055951;28;20021;-47
2021/09/27 03:02:12;;;;;;;16.20;12.77;;;15.70;90.70;;;;;;5055998;28;20123;-50
2021/09/27 03:05:04;;;;;;;16.17;11.93;;;15.80;90.40;;;;;;5054345;28;20362;-47
2021/09/27 03:08:17;;;;;;;15.73;11.25;;;16.00;89.70;;;;;;5055851;28;20094;-46
2021/09/27 03:11:07;;;;;;;17.25;11.00;;;16.00;89.70;;;;;;5055231;28;20041;-47
2021/09/27 03:13:45;;;;;;;15.95;11.35;;;16.00;89.60;;;;;;5055711;28;20017;-47
2021/09/27 03:16:38;;;;;;;14.73;10.55;;;16.10;89.30;;;;;;5055434;28;20056;-48
2021/09/27 03:19:47;;;;;;;15.27;11.35;;;16.30;89.20;;;;;;5055406;28;20075;-48
2021/09/27 03:22:31;;;;;;;14.27;12.07;;;16.30;89.00;;;;;;5055318;28;20036;-47
2021/09/27 03:25:11;;;;;;;16.08;11.40;;;16.20;89.00;;;;;;5055383;28;20021;-49
2021/09/27 03:27:47;;;;;;;16.73;11.00;;;16.30;89.00;;;;;;5055180;28;20025;-47
2021/09/27 03:30:55;;;;;;;15.77;10.30;;;16.30;88.90;;;;;;5055927;28;20021;-46
2021/09/27 03:33:46;;;;;;;13.18;9.27;;;16.30;88.70;;;;;;5055034;28;20504;-47
2021/09/27 03:36:44;;;;;;;14.43;10.55;;;16.30;88.50;;;;;;5054807;28;20465;-49
2021/09/27 03:39:31;;;;;;;15.13;10.77;;;16.40;88.30;;;;;;5055160;28;20087;-47
2021/09/27 03:42:41;;;;;;;13.30;10.63;;;16.40;88.20;;;;;;5055164;28;20511;-47
2021/09/27 03:45:20;;;;;;;15.70;10.20;;;16.40;88.20;;;;;;5054874;28;20362;-50
2021/09/27 03:47:59;;;;;;;14.10;9.95;;;16.40;88.20;;;;;;5054445;28;20029;-49
2021/09/27 03:50:34;;;;;;;14.88;9.88;;;16.50;88.00;;;;;;5054793;28;20033;-50
2021/09/27 03:53:15;;;;;;;14.98;10.48;;;16.50;88.00;;;;;;5037780;28;20476;-47
2021/09/27 03:55:49;;;;;;;;;;;16.50;88.00;;;;;;5054672;28;20041;-47
2021/09/27 03:58:20;;;;;;;13.40;9.85;;;16.60;87.80;;;;;;5054524;28;20225;-50
2021/09/27 04:01:08;;;;;;;13.75;9.40;;;16.60;87.60;;;;;;5054789;28;20033;-49
2021/09/27 04:03:36;;;;;;;12.13;8.98;;;16.80;87.20;;;;;;5054741;28;20017;-50
2021/09/27 04:06:30;;;;;;;12.43;10.02;;;16.90;86.50;;;;;;5054811;28;20029;-47
2021/09/27 04:09:20;;;;;;;13.77;8.63;;;16.80;86.80;;;;;;5053397;28;20357;-50
2021/09/27 04:12:02;;;;;;;;;;;16.90;86.50;;;;;;5054944;28;20100;-50
2021/09/27 04:14:33;;;;;;;13.90;9.90;;;16.90;86.60;;;;;;5054288;28;19949;-49
2021/09/27 04:17:25;;;;;;;14.05;8.43;;;16.90;86.70;;;;;;5054122;28;20507;-49
2021/09/27 04:20:01;;;;;;;11.63;7.72;;;16.80;86.90;;;;;;5054134;28;20563;-49
2021/09/27 04:22:33;;;;;;;12.85;9.18;;;16.80;86.90;;;;;;5054541;28;20461;-48
2021/09/27 04:25:10;;;;;;;14.55;9.10;;;16.90;86.80;;;;;;5052774;28;20025;-49
2021/09/27 04:27:57;;;;;;;16.48;9.30;;;17.10;86.40;;;;;;5054034;28;20120;-51
2021/09/27 04:30:41;;;;;;;18.23;9.73;;;17.10;85.90;;;;;;5054356;28;20056;-50
2021/09/27 04:33:19;;;;;;;11.15;8.20;;;16.80;86.60;;;;;;5054232;28;20025;-48
2021/09/27 04:35:55;;;;;;;18.20;9.50;;;16.70;87.20;;;;;;5054112;28;20107;-49
2021/09/27 04:38:21;;;;;;;12.40;9.98;;;16.60;87.50;;;;;;5054210;28;20068;-49
2021/09/27 04:40:55;;;;;;;14.27;9.70;;;16.50;87.70;;;;;;5054140;28;20032;-49
2021/09/27 04:43:54;;;;;;;12.63;8.68;;;16.50;87.80;;;;;;5053989;28;20024;-51
2021/09/27 04:46:44;;;;;;;14.70;8.93;;;16.60;87.70;;;;;;5053669;28;20036;-47
2021/09/27 04:49:37;;;;;;;12.02;8.68;;;16.80;87.10;;;;;;5053724;28;20492;-47
2021/09/27 04:52:13;;;;;;;13.40;9.32;;;16.60;87.30;;;;;;5053948;28;20029;-50
2021/09/27 04:54:57;;;;;;;12.23;8.35;;;16.60;87.50;;;;;;5053569;28;20447;-50
2021/09/27 04:57:28;;;;;;;14.90;9.35;;;16.60;87.70;;;;;;5053639;28;20028;-46
2021/09/27 05:00:31;;;;;;;13.18;8.75;;;16.60;87.70;;;;;;5053152;28;20021;-47
2021/09/27 05:03:11;;;;;;;15.65;10.20;;;16.50;87.70;;;;;;5053325;28;20534;-49
2021/09/27 05:05:37;;;;;;;;;;;16.60;87.70;;;;;;5053741;28;20025;-47
2021/09/27 05:08:38;;;;;;;16.15;9.52;;;16.70;87.20;;;;;;5053596;28;19991;-49
2021/09/27 05:11:12;;;;;;;12.18;9.90;;;16.60;87.40;;;;;;5053435;28;20103;-50
2021/09/27 05:14:06;;;;;;;12.35;9.18;;;16.70;87.50;;;;;;5053443;28;20035;-49
2021/09/27 05:16:50;;;;;;;13.60;9.52;;;16.70;87.30;;;;;;5052889;28;20028;-51
2021/09/27 05:19:30;;;;;;;14.32;9.07;;;16.60;87.50;;;;;;5053194;28;20469;-49
2021/09/27 05:22:05;;;;;;;12.90;9.20;;;16.60;87.90;;;;;;5053059;28;20025;-46
2021/09/27 05:24:42;;;;;;;18.08;9.65;;;16.60;87.50;;;;;;5052987;28;20028;-48
2021/09/27 05:27:28;;;;;;;11.90;8.80;;;16.70;87.50;;;;;;5052705;28;20052;-48
2021/09/27 05:30:12;;;;;;;14.70;8.98;;;16.70;87.60;;;;;;5052377;28;20116;-48
2021/09/27 05:33:11;;;;;;;10.55;9.23;;;16.70;87.50;;;;;;5053505;28;20105;-47
2021/09/27 05:35:39;;;;;;;20.95;9.13;;;16.60;87.60;;;;;;5053095;28;20397;-51
2021/09/27 05:38:34;;;;;;;12.18;9.60;;;16.60;87.90;;;;;;5052549;28;20492;-51
2021/09/27 05:41:27;;;;;;;18.48;9.05;;;16.50;88.00;;;;;;5052338;28;20032;-50
2021/09/27 05:44:10;;;;;;;13.07;9.43;;;16.60;87.90;;;;;;5053258;28;20021;-47
2021/09/27 05:47:12;;;;;;;14.27;9.82;;;16.60;88.00;;;;;;5053115;28;20049;-48
2021/09/27 05:49:38;;;;;;;16.13;8.85;;;16.70;87.90;;;;;;5052412;28;20056;-49
2021/09/27 05:52:14;;;;;;;15.98;9.65;;;16.70;87.60;;;;;;5052251;28;20385;-47
2021/09/27 05:55:03;;;;;;;20.20;9.93;;;16.70;87.70;;;;;;5052397;28;20049;-47
2021/09/27 05:57:50;;;;;;;12.35;8.63;;;16.80;87.30;;;;;;5052837;28;20021;-50
2021/09/27 06:00:30;;;;;;;12.32;9.20;;;16.70;87.30;;;;;;5051552;28;20485;-47
2021/09/27 06:03:33;;;;;;;16.45;10.23;;;16.60;87.70;;;;;;5052634;28;20025;-48
2021/09/27 06:06:34;;;;;;;17.05;9.38;;;16.60;87.80;;;;;;5037646;28;20327;-48
2021/09/27 06:09:21;;;;;;;12.18;10.00;;;16.60;87.40;;;;;;5052791;28;20469;-47
2021/09/27 06:12:08;;;;;;;16.95;9.95;;;16.70;87.70;;;;;;5054088;28;20025;-50
2021/09/27 06:14:35;;;;;;;14.15;8.65;;;16.80;87.30;;;;;;5055246;28;20035;-54
2021/09/27 06:17:25;;;;;;;14.82;9.55;;;16.90;86.80;;;;;;5057082;28;20030;-49
2021/09/27 06:20:15;;;;;;;13.65;9.45;;;16.90;86.80;;;;;;5056031;28;20021;-47
2021/09/27 06:23:00;;;;;;;;;;;16.90;86.80;;;;;;5057517;28;20036;-47
2021/09/27 06:25:38;;;;;;;17.25;8.82;;;17.10;86.30;;;;;;5056768;28;19912;-47
2021/09/27 06:28:23;;;;;;;12.60;9.13;;;17.30;85.60;;;;;;5056012;28;20029;-50
2021/09/27 06:31:01;;;;;;;13.05;8.45;;;17.30;85.80;;;;;;5056814;28;20116;-47
2021/09/27 06:33:43;;;;;;;13.38;8.90;;;17.30;85.30;;;;;;5055928;28;20021;-53
2021/09/27 06:36:14;;;;;;;12.60;8.77;;;17.40;85.30;;;;;;5056546;28;20032;-48
2021/09/27 06:38:41;;;;;;;21.95;8.93;;;17.40;85.20;;;;;;5055872;28;20104;-48
2021/09/27 06:41:17;;;;;;;10.80;7.45;;;17.50;85.00;;;;;;5055626;28;20112;-47
2021/09/27 06:43:44;;;;;;;12.10;8.07;;;17.40;84.60;;;;;;5056006;28;20021;-49
2021/09/27 06:46:10;;;;;;;10.48;8.05;;;17.30;85.40;;;;;;5056040;28;20025;-48
2021/09/27 06:48:36;;;;;;;11.23;7.72;;;17.30;85.40;;;;;;5055954;28;20032;-48
2021/09/27 06:51:01;;;;;;;9.55;8.07;;;17.50;84.70;;;;;;5056133;28;20029;-49
2021/09/27 06:53:30;;;;;;;9.38;7.85;;;17.70;84.10;;;;;;5055878;28;20029;-37
2021/09/27 06:55:57;;;;;;;12.63;7.93;;;17.60;84.10;;;;;;5053976;28;20041;-37
2021/09/27 06:58:23;;;;;;;12.55;7.43;;;17.70;84.10;;;;;;5053751;28;20055;-46
2021/09/27 07:00:51;;;;;;;18.30;8.20;;;17.70;84.30;;;;;;5053950;28;20021;-37
2021/09/27 07:03:17;;;;;;;11.10;8.32;;;17.90;83.50;;;;;;5055155;28;20025;-36
2021/09/27 07:05:42;;;;;;;11.15;8.02;;;18.00;82.80;;;;;;5053606;28;20548;-37
2021/09/27 07:08:08;;;;;;;11.68;7.22;;;18.10;82.50;;;;;;5054868;28;20031;-37
2021/09/27 07:10:34;;;;;;;11.05;8.75;;;18.10;82.70;;;;;;5055000;28;20064;-37
2021/09/27 07:13:00;;;;;;;10.00;7.55;;;17.80;83.20;;;;;;5054883;28;20033;-36
2021/09/27 07:15:25;;;;;;;12.50;8.18;;;17.90;83.00;;;;;;5020517;28;20075;-37
2021/09/27 07:17:51;;;;;;;15.68;8.98;;;18.10;82.50;;;;;;5055002;28;20032;-36
2021/09/27 07:20:25;;;;;;;14.68;9.43;;;18.20;82.10;;;;;;5054723;28;20112;-37
2021/09/27 07:22:51;;;;;;;14.45;8.38;;;18.30;81.70;;;;;;5054195;28;20025;-37
2021/09/27 07:25:17;;;;;;;12.13;8.38;;;18.30;81.80;;;;;;5055033;28;20040;-37
2021/09/27 07:27:43;;;;;;;9.02;7.05;;;18.30;82.10;;;;;;5055543;28;20055;-38
2021/09/27 07:30:11;;;;;;;14.73;9.75;;;18.30;82.10;;;;;;5054916;28;20029;-38
2021/09/27 07:32:37;;;;;;;12.13;8.77;;;18.80;80.20;;;;;;5054417;28;20029;-37
2021/09/27 07:35:04;;;;;;;14.27;8.85;;;19.20;78.90;;;;;;5054740;28;20525;-38
2021/09/27 07:37:29;;;;;;;10.38;7.75;;;19.00;78.70;;;;;;5053781;28;20024;-38
2021/09/27 07:39:55;;;;;;;14.18;9.70;;;18.80;79.80;;;;;;5054809;28;20523;-37
2021/09/27 07:42:21;;;;;;;15.68;9.45;;;18.90;79.10;;;;;;5054742;28;20469;-39
2021/09/27 07:44:47;;;;;;;9.50;7.75;;;18.80;79.50;;;;;;5054535;28;20021;-37
2021/09/27 07:47:12;;;;;;;15.40;9.80;;;18.60;80.00;;;;;;5052955;28;20087;-37
2021/09/27 07:49:38;;;;;;;12.30;7.00;;;18.70;80.10;;;;;;5054440;28;20025;-37
2021/09/27 07:52:04;;;;;;;11.07;8.75;;;18.70;80.10;;;;;;5054218;28;20022;-37
2021/09/27 07:54:30;;;;;;;10.60;8.48;;;18.50;80.80;;;;;;5053857;28;20045;-37
2021/09/27 07:56:56;;;;;;;10.40;8.50;;;18.80;79.90;;;;;;5052889;28;20382;-37
2021/09/27 07:59:22;;;;;;;14.60;9.88;;;19.00;78.90;;;;;;5054381;28;20021;-37
2021/09/27 08:01:48;;;;;;;11.43;7.82;;;19.10;78.90;;;;;;5052923;28;20048;-37
2021/09/27 08:04:15;;;;;;;12.57;8.15;;;19.30;77.60;;;;;;5053114;28;20056;-38
2021/09/27 08:06:44;;;;;;;11.13;8.25;;;19.20;78.70;;;;;;5054372;28;20036;-41
2021/09/27 08:09:11;;;;;;;12.25;7.93;;;19.40;77.40;;;;;;5053835;28;20421;-38
2021/09/27 08:11:40;;;;;;;18.88;11.40;;;19.20;78.60;;;;;;5054087;28;20408;-38
2021/09/27 08:14:06;;;;;;;14.63;7.65;;;19.60;76.80;;;;;;5053274;28;20068;-38
2021/09/27 08:16:32;;;;;;;13.82;8.55;;;19.80;75.90;;;;;;5054077;28;20051;-37
2021/09/27 08:18:58;;;;;;;11.45;8.25;;;20.10;74.90;;;;;;5053820;28;20111;-39
2021/09/27 08:21:24;;;;;;;10.60;7.40;;;20.30;74.30;;;;;;5035665;28;20044;-38
2021/09/27 08:23:50;;;;;;;10.68;7.72;;;20.60;72.50;;;;;;5053236;28;20025;-37
2021/09/27 08:26:18;;;;;;;13.68;7.88;;;20.40;73.10;;;;;;5053653;28;20113;-37
2021/09/27 08:28:44;;;;;;;12.80;8.73;;;20.50;73.10;;;;;;5053235;28;20051;-38
2021/09/27 08:31:16;;;;;;;13.27;7.38;;;20.50;72.90;;;;;;5053777;28;20029;-39
2021/09/27 08:33:42;;;;;;;10.70;6.35;;;20.80;72.10;;;;;;5053998;28;20470;-37
2021/09/27 08:36:10;;;;;;;9.98;5.82;;;20.80;71.10;;;;;;5052541;28;20358;-37
2021/09/27 08:38:38;;;;;;;15.25;7.82;;;20.60;71.80;;;;;;5053740;28;20093;-39
2021/09/27 08:41:19;;;;;;;8.27;7.07;;;20.80;71.60;;;;;;5052373;28;20106;-37
2021/09/27 08:44:12;;;;;;;14.95;7.22;;;21.10;70.80;;;;;;5053422;28;20017;-35
2021/09/27 08:46:49;;;;;;;12.40;7.40;;;21.00;71.00;;;;;;5053213;28;20051;-39
2021/09/27 08:49:49;;;;;;;11.18;7.70;;;20.40;72.20;;;;;;5053113;28;20090;-38
2021/09/27 08:52:17;;;;;;;9.88;7.95;;;19.80;74.20;;;;;;5053808;28;20469;-37
2021/09/27 08:54:44;;;;;;;11.98;8.00;;;19.80;74.40;;;;;;5053102;28;20075;-38
2021/09/27 08:57:33;;;;;;;18.08;8.23;;;19.80;74.90;;;;;;5053682;28;20468;-41
2021/09/27 09:00:13;;;;;;;11.15;7.55;;;19.70;75.00;;;;;;5053501;28;20099;-38
2021/09/27 09:02:46;;;;;;;8.07;6.30;;;20.10;73.40;;;;;;5053330;28;20033;-39
2021/09/27 09:05:38;;;;;;;9.18;6.93;;;20.30;73.20;;;;;;5053108;28;20051;-38
2021/09/27 09:08:07;;;;;;;8.45;6.00;;;20.60;72.30;;;;;;5052614;28;20040;-40
2021/09/27 09:10:58;;;;;;;7.40;6.38;;;21.00;70.30;;;;;;5053183;28;20029;-37
2021/09/27 09:13:33;;;;;;;7.93;6.35;;;21.70;68.50;;;;;;5051750;28;20041;-37
2021/09/27 09:16:02;;;;;;;8.00;6.60;;;21.80;67.10;;;;;;5053111;28;20025;-37
2021/09/27 09:18:55;;;;;;;8.07;5.70;;;22.20;66.00;;;;;;5052998;28;20028;-38
2021/09/27 09:21:41;;;;;;;7.05;5.75;;;22.10;65.90;;;;;;5051514;28;20143;-37
2021/09/27 09:24:14;;;;;;;8.18;6.07;;;21.80;66.30;;;;;;5053007;28;20025;-37
2021/09/27 09:26:47;;;;;;;10.50;5.78;;;21.90;66.40;;;;;;5050982;28;20433;-46
2021/09/27 09:29:18;;;;;;;6.72;5.40;;;22.80;64.20;;;;;;5052326;28;20028;-37
2021/09/27 09:31:50;;;;;;;9.60;6.60;;;23.40;61.90;;;;;;5052630;28;20078;-36
2021/09/27 09:34:19;;;;;;;10.25;6.15;;;23.30;62.00;;;;;;5051132;28;20032;-38
2021/09/27 09:36:50;;;;;;;12.00;5.20;;;23.20;62.10;;;;;;5052749;28;20033;-39
2021/09/27 09:39:56;;;;;;;7.03;5.50;;;23.30;62.10;;;;;;5052552;28;20381;-37
2021/09/27 09:42:26;;;;;;;6.75;4.20;;;22.90;62.20;;;;;;5052611;28;20055;-38
2021/09/27 09:44:55;;;;;;;12.02;4.53;;;22.80;62.90;;;;;;5052641;28;20108;-39
2021/09/27 09:47:25;;;;;;;8.20;5.43;;;23.30;61.70;;;;;;5052132;28;20461;-37
2021/09/27 09:49:57;;;;;;;5.28;4.22;;;24.10;59.00;;;;;;5052205;28;20025;-38
2021/09/27 09:52:39;;;;;;;5.20;3.85;;;23.60;60.40;;;;;;5052151;28;20443;-37
2021/09/27 09:55:16;;;;;;;5.75;4.35;;;23.70;59.50;;;;;;5052447;28;20493;-38
2021/09/27 09:58:05;;;;;;;7.47;3.88;;;23.70;59.30;;;;;;5052309;28;20098;-38
2021/09/27 10:00:57;;;;;;;16.55;5.60;;;24.20;57.90;;;;;;5052322;28;20076;-37
2021/09/27 10:03:34;;;;;;;6.57;4.22;;;24.30;57.70;;;;;;5050833;28;20024;-36
2021/09/27 10:06:07;;;;;;;6.50;4.10;;;23.50;60.40;;;;;;5052459;28;20025;-38
2021/09/27 10:08:35;;;;;;;4.60;4.20;;;23.30;60.90;;;;;;5052395;28;20025;-38
2021/09/27 10:11:12;;;;;;;8.95;4.80;;;22.60;62.70;;;;;;5051988;28;20094;-38
2021/09/27 10:13:52;;;;;;;;;;;;;;;;;;;;;
2021/09/27 10:16:49;;;;;;;6.03;4.05;;;22.40;63.90;;;;;;5053054;28;20095;-37
2021/09/27 10:19:29;;;;;;;8.15;5.40;;;23.70;59.90;;;;;;5051761;28;20041;-37
2021/09/27 10:22:17;;;;;;;7.35;3.30;;;23.90;59.40;;;;;;5052486;28;20037;-38
2021/09/27 10:24:49;;;;;;;6.57;4.05;;;24.00;58.10;;;;;;5051869;28;20098;-37
2021/09/27 10:27:18;;;;;;;7.25;4.15;;;23.20;60.00;;;;;;5052290;28;20548;-39
2021/09/27 10:29:44;;;;;;;4.78;3.47;;;22.60;62.50;;;;;;5051722;28;20025;-37
2021/09/27 10:32:38;;;;;;;6.72;4.07;;;22.90;61.50;;;;;;5052188;28;20048;-38
2021/09/27 10:35:26;;;;;;;9.57;3.97;;;22.80;62.20;;;;;;5052648;28;20020;-37
2021/09/27 10:38:16;;;;;;;4.38;3.20;;;22.80;62.00;;;;;;5051612;28;20032;-37
2021/09/27 10:40:47;;;;;;;8.18;3.45;;;22.80;62.70;;;;;;5052497;28;20013;-36
2021/09/27 10:43:16;;;;;;;3.80;3.10;;;22.40;63.20;;;;;;5051970;28;20046;-38
2021/09/27 10:45:47;;;;;;;4.13;3.75;;;22.20;63.50;;;;;;5051378;28;20029;-38
2021/09/27 10:48:14;;;;;;;7.75;3.75;;;22.30;63.80;;;;;;5050167;28;20021;-38
2021/09/27 10:50:44;;;;;;;11.85;4.57;;;22.20;63.80;;;;;;5051562;28;20025;-38
2021/09/27 10:53:32;;;;;;;6.32;3.53;;;22.10;64.80;;;;;;5050117;28;20029;-37
2021/09/27 10:56:16;;;;;;;4.78;3.63;;;22.40;64.10;;;;;;5051736;28;20052;-38
2021/09/27 10:58:42;;;;;;;4.43;3.70;;;21.80;65.60;;;;;;5053742;28;20029;-38
2021/09/27 11:01:29;;;;;;;5.07;3.28;;;22.10;65.40;;;;;;5055524;28;20062;-38
2021/09/27 11:03:57;;;;;;;13.52;3.10;;;22.40;64.40;;;;;;5055803;28;20024;-39
2021/09/27 11:06:37;;;;;;;4.93;3.13;;;22.40;64.40;;;;;;5054944;28;20025;-37
2021/09/27 11:09:03;;;;;;;6.32;3.05;;;22.00;65.20;;;;;;5055168;28;20021;-37
2021/09/27 11:11:29;;;;;;;7.63;3.33;;;22.00;66.00;;;;;;5054659;28;20029;-37
2021/09/27 11:13:59;;;;;;;4.90;3.67;;;22.00;66.10;;;;;;5054579;28;20029;-37
2021/09/27 11:16:33;;;;;;;3.70;3.03;;;21.80;66.70;;;;;;5053107;28;20140;-36
2021/09/27 11:19:12;;;;;;;4.30;3.05;;;21.30;68.00;;;;;;5052870;28;20041;-36
2021/09/27 11:21:48;;;;;;;9.18;3.75;;;21.50;67.30;;;;;;5054816;28;20031;-37
2021/09/27 11:24:17;;;;;;;7.45;4.43;;;21.60;67.00;;;;;;5054714;28;20386;-37
2021/09/27 11:27:00;;;;;;;7.80;3.10;;;21.70;67.00;;;;;;5054904;28;20052;-37
2021/09/27 11:29:34;;;;;;;4.45;3.05;;;21.50;67.70;;;;;;5054904;28;20032;-38
2021/09/27 11:32:41;;;;;;;4.70;3.20;;;21.50;67.80;;;;;;5055454;28;20181;-38
2021/09/27 11:35:24;;;;;;;6.95;3.22;;;21.60;67.50;;;;;;5054749;28;20044;-38
2021/09/27 11:37:50;;;;;;;6.97;3.75;;;21.70;67.20;;;;;;5055168;28;20029;-37
2021/09/27 11:40:20;;;;;;;5.35;3.67;;;21.60;67.60;;;;;;5055117;28;20031;-37
2021/09/27 11:42:56;;;;;;;6.93;3.67;;;21.80;67.20;;;;;;5055814;28;20017;-38
2021/09/27 11:45:41;;;;;;;6.22;3.20;;;21.40;68.00;;;;;;5055534;28;20032;-38
2021/09/27 11:48:18;;;;;;;5.65;3.22;;;21.50;67.70;;;;;;5055243;28;20051;-38
2021/09/27 11:50:55;;;;;;;4.07;3.65;;;21.50;68.10;;;;;;5054586;28;20507;-37
2021/09/27 11:53:49;;;;;;;5.75;4.28;;;21.50;68.40;;;;;;5054899;28;20029;-38
2021/09/27 11:56:21;;;;;;;5.35;3.20;;;21.40;68.50;;;;;;5053270;28;20126;-37
2021/09/27 11:58:55;;;;;;;8.95;4.65;;;21.60;68.50;;;;;;5054627;28;20358;-38
2021/09/27 12:01:48;;;;;;;6.35;3.50;;;21.50;68.80;;;;;;5054342;28;20044;-38
2021/09/27 12:04:48;;;;;;;3.92;3.10;;;21.60;68.10;;;;;;5054746;28;20028;-38
2021/09/27 12:07:15;;;;;;;7.30;3.47;;;21.70;68.10;;;;;;5054500;28;20024;-38
2021/09/27 12:09:48;;;;;;;5.28;3.35;;;21.90;67.10;;;;;;5054473;28;20507;-38
2021/09/27 12:12:52;;;;;;;5.47;2.75;;;21.80;67.80;;;;;;5054392;28;20036;-38
2021/09/27 12:15:23;;;;;;;10.35;3.47;;;21.90;67.50;;;;;;5054483;28;20028;-39
2021/09/27 12:17:50;;;;;;;5.90;3.33;;;22.10;67.30;;;;;;5054651;28;20063;-38
2021/09/27 12:20:20;;;;;;;7.10;3.42;;;22.40;66.50;;;;;;5036565;28;20477;-36
2021/09/27 12:22:55;;;;;;;14.07;5.63;;;22.40;66.60;;;;;;5054329;28;20029;-37
2021/09/27 12:25:30;;;;;;;7.22;4.28;;;22.60;66.00;;;;;;5054188;28;20416;-38
2021/09/27 12:28:05;;;;;;;5.35;3.45;;;22.80;64.90;;;;;;5054407;28;20029;-38
2021/09/27 12:30:34;;;;;;;8.68;3.53;;;22.40;65.80;;;;;;5054705;28;20024;-38
2021/09/27 12:33:04;;;;;;;6.15;3.67;;;22.20;66.70;;;;;;5054109;28;20032;-37
2021/09/27 12:35:37;;;;;;;5.80;3.08;;;21.90;67.40;;;;;;5052507;28;20047;-37
2021/09/27 12:38:03;;;;;;;8.90;3.85;;;21.80;67.60;;;;;;5053640;28;20036;-38
2021/09/27 12:40:39;;;;;;;4.00;2.95;;;21.70;68.10;;;;;;5053196;28;20025;-36
2021/09/27 12:43:17;;;;;;;4.28;3.88;;;21.90;67.60;;;;;;5053277;28;20107;-37
2021/09/27 12:45:47;;;;;;;7.18;3.17;;;22.20;66.40;;;;;;5053390;28;20053;-37
2021/09/27 12:48:35;;;;;;;6.15;3.65;;;22.30;66.20;;;;;;5053135;28;20025;-37
2021/09/27 12:51:07;;;;;;;5.72;3.20;;;22.20;66.70;;;;;;5053132;28;20033;-37
2021/09/27 12:53:48;;;;;;;8.40;4.43;;;22.00;67.20;;;;;;5052842;28;20025;-37
2021/09/27 12:56:16;;;;;;;9.48;2.95;;;22.00;67.40;;;;;;5052758;28;20106;-44
2021/09/27 12:58:48;;;;;;;6.13;3.53;;;21.90;67.40;;;;;;5053547;28;20469;-37
2021/09/27 13:01:21;;;;;;;7.55;2.88;;;21.80;67.50;;;;;;5053570;28;20024;-38
2021/09/27 13:04:03;;;;;;;5.93;3.13;;;22.00;67.70;;;;;;5052715;28;20021;-38
2021/09/27 13:06:36;;;;;;;7.32;3.20;;;21.80;66.80;;;;;;5052033;28;20025;-46
2021/09/27 13:09:23;;;;;;;5.55;2.90;;;21.90;67.30;;;;;;5052939;28;20078;-38
2021/09/27 13:12:08;;;;;;;4.30;3.22;;;21.70;67.00;;;;;;5053184;28;20033;-38
2021/09/27 13:14:38;;;;;;;6.70;3.13;;;21.80;66.20;;;;;;5052186;28;20469;-38
2021/09/27 13:17:16;;;;;;;5.32;3.45;;;21.90;66.60;;;;;;5052397;28;20064;-40
2021/09/27 13:19:48;;;;;;;8.57;2.95;;;21.90;66.30;;;;;;5052380;28;20052;-38
2021/09/27 13:22:43;;;;;;;5.85;3.95;;;21.90;66.30;;;;;;5052277;28;20031;-38
2021/09/27 13:25:26;;;;;;;9.23;2.97;;;21.80;66.90;;;;;;5052312;28;20420;-39
2021/09/27 13:28:08;;;;;;;9.25;2.45;;;21.70;66.90;;;;;;5052403;28;20052;-38
2021/09/27 13:30:37;;;;;;;6.50;3.35;;;21.80;66.80;;;;;;5052800;28;20036;-37